sensor_id;sensor_type;location;lat;lon;timestamp;P1;durP1;ratioP1;P2;durP2;ratioP2
6999;SDS011;3540;53.242;10.408;2024-01-11T00:02:14;34.40;;;20.40;;
6999;SDS011;3540;53.242;10.408;2024-01-11T00:04:41;37.40;;;21.63;;
6999;SDS011;3540;53.242;10.408;2024-01-11T00:07:08;36.93;;;21.33;;
6999;SDS011;3540;53.242;10.408;2024-01-11T00:09:38;37.27;;;20.67;;
6999;SDS011;3540;53.242;10.408;2024-01-11T00:12:07;35.53;;;20.33;;
6999;SDS011;3540;53.242;10.408;2024-01-11T00:14:33;34.70;;;20.27;;
6999;SDS011;3540;53.242;10.408;2024-01-11T00:17:00;35.77;;;19.73;;
6999;SDS011;3540;53.242;10.408;2024-01-11T00:19:26;37.13;;;20.47;;
6999;SDS011;3540;53.242;10.408;2024-01-11T00:21:51;38.13;;;20.90;;
6999;SDS011;3540;53.242;10.408;2024-01-11T00:24:17;35.40;;;19.67;;
6999;SDS011;3540;53.242;10.408;2024-01-11T00:26:42;34.23;;;19.77;;
6999;SDS011;3540;53.242;10.408;2024-01-11T00:29:08;38.27;;;20.43;;
6999;SDS011;3540;53.242;10.408;2024-01-11T00:31:34;36.47;;;19.70;;
6999;SDS011;3540;53.242;10.408;2024-01-11T00:34:00;30.67;;;18.60;;
6999;SDS011;3540;53.242;10.408;2024-01-11T00:36:26;32.83;;;18.87;;
6999;SDS011;3540;53.242;10.408;2024-01-11T00:38:53;30.73;;;18.60;;
6999;SDS011;3540;53.242;10.408;2024-01-11T00:41:19;33.27;;;18.87;;
6999;SDS011;3540;53.242;10.408;2024-01-11T00:43:44;34.37;;;19.70;;
6999;SDS011;3540;53.242;10.408;2024-01-11T00:46:10;34.73;;;19.90;;
6999;SDS011;3540;53.242;10.408;2024-01-11T00:48:36;38.30;;;20.43;;
6999;SDS011;3540;53.242;10.408;2024-01-11T00:51:01;35.47;;;20.17;;
6999;SDS011;3540;53.242;10.408;2024-01-11T00:53:29;34.77;;;18.77;;
6999;SDS011;3540;53.242;10.408;2024-01-11T00:55:57;32.73;;;18.53;;
6999;SDS011;3540;53.242;10.408;2024-01-11T00:58:22;32.70;;;18.73;;
6999;SDS011;3540;53.242;10.408;2024-01-11T01:00:48;28.83;;;18.03;;
6999;SDS011;3540;53.242;10.408;2024-01-11T01:03:14;31.13;;;19.03;;
6999;SDS011;3540;53.242;10.408;2024-01-11T01:05:41;28.43;;;16.87;;
6999;SDS011;3540;53.242;10.408;2024-01-11T01:08:07;34.63;;;17.80;;
6999;SDS011;3540;53.242;10.408;2024-01-11T01:10:32;27.97;;;17.37;;
6999;SDS011;3540;53.242;10.408;2024-01-11T01:12:58;29.90;;;17.60;;
6999;SDS011;3540;53.242;10.408;2024-01-11T01:15:24;29.80;;;17.00;;
6999;SDS011;3540;53.242;10.408;2024-01-11T01:17:49;27.47;;;16.27;;
6999;SDS011;3540;53.242;10.408;2024-01-11T01:20:15;27.00;;;16.33;;
6999;SDS011;3540;53.242;10.408;2024-01-11T01:22:41;30.97;;;17.83;;
6999;SDS011;3540;53.242;10.408;2024-01-11T01:25:06;28.20;;;16.90;;
6999;SDS011;3540;53.242;10.408;2024-01-11T01:27:32;31.70;;;18.67;;
6999;SDS011;3540;53.242;10.408;2024-01-11T01:29:58;28.70;;;17.07;;
6999;SDS011;3540;53.242;10.408;2024-01-11T01:32:23;28.30;;;16.33;;
6999;SDS011;3540;53.242;10.408;2024-01-11T01:34:49;31.77;;;18.23;;
6999;SDS011;3540;53.242;10.408;2024-01-11T01:37:15;29.33;;;17.00;;
6999;SDS011;3540;53.242;10.408;2024-01-11T01:39:40;30.97;;;17.90;;
6999;SDS011;3540;53.242;10.408;2024-01-11T01:42:07;32.27;;;17.60;;
6999;SDS011;3540;53.242;10.408;2024-01-11T01:44:33;29.40;;;17.50;;
6999;SDS011;3540;53.242;10.408;2024-01-11T01:46:58;35.17;;;18.83;;
6999;SDS011;3540;53.242;10.408;2024-01-11T01:49:25;35.57;;;19.27;;
6999;SDS011;3540;53.242;10.408;2024-01-11T01:51:51;35.63;;;20.30;;
6999;SDS011;3540;53.242;10.408;2024-01-11T01:54:18;33.20;;;19.50;;
6999;SDS011;3540;53.242;10.408;2024-01-11T01:56:46;34.87;;;20.70;;
6999;SDS011;3540;53.242;10.408;2024-01-11T01:59:12;35.00;;;20.67;;
6999;SDS011;3540;53.242;10.408;2024-01-11T02:01:38;38.87;;;20.90;;
6999;SDS011;3540;53.242;10.408;2024-01-11T02:04:05;38.90;;;20.90;;
6999;SDS011;3540;53.242;10.408;2024-01-11T02:06:31;32.63;;;19.20;;
6999;SDS011;3540;53.242;10.408;2024-01-11T02:08:59;36.27;;;19.97;;
6999;SDS011;3540;53.242;10.408;2024-01-11T02:11:28;38.33;;;20.77;;
6999;SDS011;3540;53.242;10.408;2024-01-11T02:13:53;36.73;;;20.03;;
6999;SDS011;3540;53.242;10.408;2024-01-11T02:16:20;36.20;;;19.53;;
6999;SDS011;3540;53.242;10.408;2024-01-11T02:18:45;36.10;;;20.27;;
6999;SDS011;3540;53.242;10.408;2024-01-11T02:21:11;38.07;;;21.13;;
6999;SDS011;3540;53.242;10.408;2024-01-11T02:23:44;41.33;;;21.17;;
6999;SDS011;3540;53.242;10.408;2024-01-11T02:26:44;37.53;;;20.03;;
6999;SDS011;3540;53.242;10.408;2024-01-11T02:29:24;36.83;;;20.77;;
6999;SDS011;3540;53.242;10.408;2024-01-11T02:31:50;36.17;;;20.00;;
6999;SDS011;3540;53.242;10.408;2024-01-11T02:34:16;36.93;;;19.97;;
6999;SDS011;3540;53.242;10.408;2024-01-11T02:36:42;33.83;;;20.50;;
6999;SDS011;3540;53.242;10.408;2024-01-11T02:39:08;37.47;;;20.00;;
6999;SDS011;3540;53.242;10.408;2024-01-11T02:41:35;35.03;;;20.70;;
6999;SDS011;3540;53.242;10.408;2024-01-11T02:44:02;37.13;;;21.07;;
6999;SDS011;3540;53.242;10.408;2024-01-11T02:46:28;34.17;;;20.03;;
6999;SDS011;3540;53.242;10.408;2024-01-11T02:48:55;31.60;;;19.00;;
6999;SDS011;3540;53.242;10.408;2024-01-11T02:51:20;29.30;;;17.50;;
6999;SDS011;3540;53.242;10.408;2024-01-11T02:53:46;32.80;;;18.77;;
6999;SDS011;3540;53.242;10.408;2024-01-11T02:56:11;34.17;;;19.60;;
6999;SDS011;3540;53.242;10.408;2024-01-11T02:58:37;32.90;;;19.50;;
6999;SDS011;3540;53.242;10.408;2024-01-11T03:01:03;33.60;;;19.33;;
6999;SDS011;3540;53.242;10.408;2024-01-11T03:03:28;36.00;;;19.00;;
6999;SDS011;3540;53.242;10.408;2024-01-11T03:05:54;32.87;;;19.37;;
6999;SDS011;3540;53.242;10.408;2024-01-11T03:08:20;38.23;;;19.97;;
6999;SDS011;3540;53.242;10.408;2024-01-11T03:10:45;35.33;;;19.67;;
6999;SDS011;3540;53.242;10.408;2024-01-11T03:13:11;36.07;;;20.27;;
6999;SDS011;3540;53.242;10.408;2024-01-11T03:15:37;37.27;;;21.17;;
6999;SDS011;3540;53.242;10.408;2024-01-11T03:18:03;35.53;;;20.33;;
6999;SDS011;3540;53.242;10.408;2024-01-11T03:20:29;35.77;;;20.40;;
6999;SDS011;3540;53.242;10.408;2024-01-11T03:22:55;39.33;;;21.60;;
6999;SDS011;3540;53.242;10.408;2024-01-11T03:25:20;42.37;;;22.80;;
6999;SDS011;3540;53.242;10.408;2024-01-11T03:27:46;38.70;;;21.43;;
6999;SDS011;3540;53.242;10.408;2024-01-11T03:30:11;39.17;;;21.83;;
6999;SDS011;3540;53.242;10.408;2024-01-11T03:32:37;40.57;;;23.80;;
6999;SDS011;3540;53.242;10.408;2024-01-11T03:35:04;42.57;;;21.90;;
6999;SDS011;3540;53.242;10.408;2024-01-11T03:37:32;43.03;;;22.63;;
6999;SDS011;3540;53.242;10.408;2024-01-11T03:39:57;50.03;;;22.77;;
6999;SDS011;3540;53.242;10.408;2024-01-11T03:42:24;46.87;;;24.07;;
6999;SDS011;3540;53.242;10.408;2024-01-11T03:44:49;50.47;;;24.63;;
6999;SDS011;3540;53.242;10.408;2024-01-11T03:47:15;48.13;;;23.53;;
6999;SDS011;3540;53.242;10.408;2024-01-11T03:49:40;46.70;;;24.03;;
6999;SDS011;3540;53.242;10.408;2024-01-11T03:52:06;45.60;;;24.33;;
6999;SDS011;3540;53.242;10.408;2024-01-11T03:54:31;46.40;;;22.57;;
6999;SDS011;3540;53.242;10.408;2024-01-11T03:56:57;49.00;;;24.00;;
6999;SDS011;3540;53.242;10.408;2024-01-11T03:59:23;47.07;;;23.00;;
6999;SDS011;3540;53.242;10.408;2024-01-11T04:01:48;56.47;;;25.93;;
6999;SDS011;3540;53.242;10.408;2024-01-11T04:04:14;44.57;;;22.43;;
6999;SDS011;3540;53.242;10.408;2024-01-11T04:06:40;49.70;;;24.40;;
6999;SDS011;3540;53.242;10.408;2024-01-11T04:09:05;56.30;;;24.97;;
6999;SDS011;3540;53.242;10.408;2024-01-11T04:11:31;48.30;;;23.33;;
6999;SDS011;3540;53.242;10.408;2024-01-11T04:13:57;47.50;;;23.43;;
6999;SDS011;3540;53.242;10.408;2024-01-11T04:16:22;57.23;;;25.50;;
6999;SDS011;3540;53.242;10.408;2024-01-11T04:18:48;50.27;;;24.60;;
6999;SDS011;3540;53.242;10.408;2024-01-11T04:21:21;50.63;;;24.63;;
6999;SDS011;3540;53.242;10.408;2024-01-11T04:23:47;48.50;;;24.07;;
6999;SDS011;3540;53.242;10.408;2024-01-11T04:26:12;46.50;;;22.93;;
6999;SDS011;3540;53.242;10.408;2024-01-11T04:28:38;47.73;;;23.40;;
6999;SDS011;3540;53.242;10.408;2024-01-11T04:31:03;46.73;;;23.67;;
6999;SDS011;3540;53.242;10.408;2024-01-11T04:33:29;51.30;;;24.73;;
6999;SDS011;3540;53.242;10.408;2024-01-11T04:35:55;43.77;;;22.77;;
6999;SDS011;3540;53.242;10.408;2024-01-11T04:38:20;43.17;;;23.27;;
6999;SDS011;3540;53.242;10.408;2024-01-11T04:40:46;47.47;;;23.37;;
6999;SDS011;3540;53.242;10.408;2024-01-11T04:43:11;46.87;;;23.43;;
6999;SDS011;3540;53.242;10.408;2024-01-11T04:45:37;49.20;;;24.87;;
6999;SDS011;3540;53.242;10.408;2024-01-11T04:48:05;46.97;;;23.80;;
6999;SDS011;3540;53.242;10.408;2024-01-11T04:50:31;45.00;;;23.70;;
6999;SDS011;3540;53.242;10.408;2024-01-11T04:52:57;53.57;;;25.93;;
6999;SDS011;3540;53.242;10.408;2024-01-11T04:55:22;52.20;;;25.67;;
6999;SDS011;3540;53.242;10.408;2024-01-11T04:57:48;53.57;;;25.50;;
6999;SDS011;3540;53.242;10.408;2024-01-11T05:00:13;53.13;;;25.23;;
6999;SDS011;3540;53.242;10.408;2024-01-11T05:02:39;53.37;;;25.60;;
6999;SDS011;3540;53.242;10.408;2024-01-11T05:05:05;52.50;;;26.83;;
6999;SDS011;3540;53.242;10.408;2024-01-11T05:07:31;54.17;;;26.03;;
6999;SDS011;3540;53.242;10.408;2024-01-11T05:09:56;49.70;;;25.23;;
6999;SDS011;3540;53.242;10.408;2024-01-11T05:12:22;61.33;;;27.23;;
6999;SDS011;3540;53.242;10.408;2024-01-11T05:14:48;54.47;;;26.70;;
6999;SDS011;3540;53.242;10.408;2024-01-11T05:17:13;57.33;;;26.13;;
6999;SDS011;3540;53.242;10.408;2024-01-11T05:19:39;65.33;;;28.57;;
6999;SDS011;3540;53.242;10.408;2024-01-11T05:22:04;57.37;;;28.13;;
6999;SDS011;3540;53.242;10.408;2024-01-11T05:24:30;61.23;;;27.67;;
6999;SDS011;3540;53.242;10.408;2024-01-11T05:26:56;55.77;;;25.50;;
6999;SDS011;3540;53.242;10.408;2024-01-11T05:29:21;62.97;;;28.77;;
6999;SDS011;3540;53.242;10.408;2024-01-11T05:31:47;67.30;;;29.40;;
6999;SDS011;3540;53.242;10.408;2024-01-11T05:34:13;63.40;;;28.20;;
6999;SDS011;3540;53.242;10.408;2024-01-11T05:36:39;60.13;;;30.07;;
6999;SDS011;3540;53.242;10.408;2024-01-11T05:39:04;65.97;;;29.67;;
6999;SDS011;3540;53.242;10.408;2024-01-11T05:41:30;67.87;;;30.23;;
6999;SDS011;3540;53.242;10.408;2024-01-11T05:43:56;64.67;;;29.70;;
6999;SDS011;3540;53.242;10.408;2024-01-11T05:46:22;69.80;;;30.63;;
6999;SDS011;3540;53.242;10.408;2024-01-11T05:48:47;72.43;;;31.67;;
6999;SDS011;3540;53.242;10.408;2024-01-11T05:51:13;63.90;;;30.07;;
6999;SDS011;3540;53.242;10.408;2024-01-11T05:53:39;68.37;;;31.17;;
6999;SDS011;3540;53.242;10.408;2024-01-11T05:56:10;60.57;;;29.60;;
6999;SDS011;3540;53.242;10.408;2024-01-11T05:58:36;67.40;;;29.80;;
6999;SDS011;3540;53.242;10.408;2024-01-11T06:01:03;70.57;;;31.23;;
6999;SDS011;3540;53.242;10.408;2024-01-11T06:03:29;67.30;;;30.50;;
6999;SDS011;3540;53.242;10.408;2024-01-11T06:05:55;66.43;;;30.17;;
6999;SDS011;3540;53.242;10.408;2024-01-11T06:08:20;64.43;;;30.47;;
6999;SDS011;3540;53.242;10.408;2024-01-11T06:10:46;70.30;;;30.07;;
6999;SDS011;3540;53.242;10.408;2024-01-11T06:13:12;74.23;;;31.40;;
6999;SDS011;3540;53.242;10.408;2024-01-11T06:15:38;70.17;;;30.67;;
6999;SDS011;3540;53.242;10.408;2024-01-11T06:18:03;63.03;;;29.43;;
6999;SDS011;3540;53.242;10.408;2024-01-11T06:20:29;70.77;;;31.43;;
6999;SDS011;3540;53.242;10.408;2024-01-11T06:22:55;76.67;;;32.03;;
6999;SDS011;3540;53.242;10.408;2024-01-11T06:25:21;68.47;;;30.87;;
6999;SDS011;3540;53.242;10.408;2024-01-11T06:27:46;67.57;;;30.53;;
6999;SDS011;3540;53.242;10.408;2024-01-11T06:30:12;66.87;;;30.27;;
6999;SDS011;3540;53.242;10.408;2024-01-11T06:32:38;72.37;;;31.17;;
6999;SDS011;3540;53.242;10.408;2024-01-11T06:35:04;66.20;;;30.27;;
6999;SDS011;3540;53.242;10.408;2024-01-11T06:37:30;70.50;;;31.97;;
6999;SDS011;3540;53.242;10.408;2024-01-11T06:39:56;70.87;;;31.03;;
6999;SDS011;3540;53.242;10.408;2024-01-11T06:42:21;73.87;;;31.70;;
6999;SDS011;3540;53.242;10.408;2024-01-11T06:44:47;66.23;;;30.77;;
6999;SDS011;3540;53.242;10.408;2024-01-11T06:47:13;68.90;;;30.93;;
6999;SDS011;3540;53.242;10.408;2024-01-11T06:49:39;71.37;;;32.00;;
6999;SDS011;3540;53.242;10.408;2024-01-11T06:52:05;75.30;;;31.10;;
6999;SDS011;3540;53.242;10.408;2024-01-11T06:54:31;73.17;;;32.47;;
6999;SDS011;3540;53.242;10.408;2024-01-11T06:56:57;71.60;;;30.73;;
6999;SDS011;3540;53.242;10.408;2024-01-11T06:59:23;73.60;;;32.50;;
6999;SDS011;3540;53.242;10.408;2024-01-11T07:01:49;74.33;;;31.57;;
6999;SDS011;3540;53.242;10.408;2024-01-11T07:04:14;73.07;;;31.43;;
6999;SDS011;3540;53.242;10.408;2024-01-11T07:06:40;78.20;;;33.50;;
6999;SDS011;3540;53.242;10.408;2024-01-11T07:09:06;74.10;;;31.80;;
6999;SDS011;3540;53.242;10.408;2024-01-11T07:11:32;80.00;;;33.80;;
6999;SDS011;3540;53.242;10.408;2024-01-11T07:13:57;78.73;;;34.13;;
6999;SDS011;3540;53.242;10.408;2024-01-11T07:16:24;74.77;;;32.57;;
6999;SDS011;3540;53.242;10.408;2024-01-11T07:18:49;76.50;;;32.40;;
6999;SDS011;3540;53.242;10.408;2024-01-11T07:21:21;80.53;;;32.97;;
6999;SDS011;3540;53.242;10.408;2024-01-11T07:24:00;74.97;;;31.97;;
6999;SDS011;3540;53.242;10.408;2024-01-11T07:26:26;79.33;;;34.07;;
6999;SDS011;3540;53.242;10.408;2024-01-11T07:28:52;79.60;;;32.30;;
6999;SDS011;3540;53.242;10.408;2024-01-11T07:31:19;80.93;;;33.00;;
6999;SDS011;3540;53.242;10.408;2024-01-11T07:33:45;79.63;;;33.37;;
6999;SDS011;3540;53.242;10.408;2024-01-11T07:36:11;79.57;;;33.93;;
6999;SDS011;3540;53.242;10.408;2024-01-11T07:38:37;81.90;;;33.43;;
6999;SDS011;3540;53.242;10.408;2024-01-11T07:41:03;78.77;;;33.13;;
6999;SDS011;3540;53.242;10.408;2024-01-11T07:43:28;82.70;;;33.77;;
6999;SDS011;3540;53.242;10.408;2024-01-11T07:45:57;76.70;;;33.07;;
6999;SDS011;3540;53.242;10.408;2024-01-11T07:48:23;74.40;;;33.10;;
6999;SDS011;3540;53.242;10.408;2024-01-11T07:50:49;77.73;;;33.43;;
6999;SDS011;3540;53.242;10.408;2024-01-11T07:53:15;81.17;;;34.90;;
6999;SDS011;3540;53.242;10.408;2024-01-11T07:55:40;81.90;;;34.50;;
6999;SDS011;3540;53.242;10.408;2024-01-11T07:58:06;81.00;;;34.77;;
6999;SDS011;3540;53.242;10.408;2024-01-11T08:00:32;76.07;;;32.40;;
6999;SDS011;3540;53.242;10.408;2024-01-11T08:02:58;70.90;;;32.17;;
6999;SDS011;3540;53.242;10.408;2024-01-11T08:05:24;76.23;;;31.30;;
6999;SDS011;3540;53.242;10.408;2024-01-11T08:07:50;75.23;;;32.33;;
6999;SDS011;3540;53.242;10.408;2024-01-11T08:10:16;76.80;;;32.47;;
6999;SDS011;3540;53.242;10.408;2024-01-11T08:12:42;80.03;;;33.40;;
6999;SDS011;3540;53.242;10.408;2024-01-11T08:15:07;73.07;;;31.77;;
6999;SDS011;3540;53.242;10.408;2024-01-11T08:17:37;77.17;;;33.03;;
6999;SDS011;3540;53.242;10.408;2024-01-11T08:20:04;75.83;;;31.40;;
6999;SDS011;3540;53.242;10.408;2024-01-11T08:22:33;71.50;;;30.50;;
6999;SDS011;3540;53.242;10.408;2024-01-11T08:25:01;73.93;;;31.63;;
6999;SDS011;3540;53.242;10.408;2024-01-11T08:27:29;74.47;;;31.27;;
6999;SDS011;3540;53.242;10.408;2024-01-11T08:29:56;73.03;;;30.27;;
6999;SDS011;3540;53.242;10.408;2024-01-11T08:32:22;75.90;;;31.20;;
6999;SDS011;3540;53.242;10.408;2024-01-11T08:34:48;69.97;;;29.50;;
6999;SDS011;3540;53.242;10.408;2024-01-11T08:37:13;77.23;;;31.33;;
6999;SDS011;3540;53.242;10.408;2024-01-11T08:39:39;72.43;;;28.77;;
6999;SDS011;3540;53.242;10.408;2024-01-11T08:42:05;74.43;;;29.87;;
6999;SDS011;3540;53.242;10.408;2024-01-11T08:44:31;76.23;;;29.93;;
6999;SDS011;3540;53.242;10.408;2024-01-11T08:46:57;75.07;;;28.90;;
6999;SDS011;3540;53.242;10.408;2024-01-11T08:49:24;74.13;;;29.73;;
6999;SDS011;3540;53.242;10.408;2024-01-11T08:51:50;68.37;;;29.20;;
6999;SDS011;3540;53.242;10.408;2024-01-11T08:54:16;67.13;;;27.70;;
6999;SDS011;3540;53.242;10.408;2024-01-11T08:56:42;64.27;;;27.20;;
6999;SDS011;3540;53.242;10.408;2024-01-11T08:59:07;69.30;;;27.40;;
6999;SDS011;3540;53.242;10.408;2024-01-11T09:01:34;72.43;;;29.03;;
6999;SDS011;3540;53.242;10.408;2024-01-11T09:04:01;71.07;;;26.40;;
6999;SDS011;3540;53.242;10.408;2024-01-11T09:06:27;58.23;;;23.93;;
6999;SDS011;3540;53.242;10.408;2024-01-11T09:08:52;61.67;;;25.77;;
6999;SDS011;3540;53.242;10.408;2024-01-11T09:11:18;62.80;;;24.33;;
6999;SDS011;3540;53.242;10.408;2024-01-11T09:13:44;65.87;;;26.23;;
6999;SDS011;3540;53.242;10.408;2024-01-11T09:16:13;53.03;;;23.20;;
6999;SDS011;3540;53.242;10.408;2024-01-11T09:18:43;57.00;;;24.03;;
6999;SDS011;3540;53.242;10.408;2024-01-11T09:21:09;54.93;;;23.50;;
6999;SDS011;3540;53.242;10.408;2024-01-11T09:23:35;56.00;;;22.73;;
6999;SDS011;3540;53.242;10.408;2024-01-11T09:26:01;57.10;;;23.30;;
6999;SDS011;3540;53.242;10.408;2024-01-11T09:28:27;60.43;;;23.47;;
6999;SDS011;3540;53.242;10.408;2024-01-11T09:30:52;61.97;;;24.27;;
6999;SDS011;3540;53.242;10.408;2024-01-11T09:33:19;62.73;;;25.13;;
6999;SDS011;3540;53.242;10.408;2024-01-11T09:35:44;57.23;;;23.10;;
6999;SDS011;3540;53.242;10.408;2024-01-11T09:38:10;52.70;;;21.57;;
6999;SDS011;3540;53.242;10.408;2024-01-11T09:40:36;55.00;;;20.60;;
6999;SDS011;3540;53.242;10.408;2024-01-11T09:43:02;51.47;;;20.63;;
6999;SDS011;3540;53.242;10.408;2024-01-11T09:45:29;43.33;;;18.07;;
6999;SDS011;3540;53.242;10.408;2024-01-11T09:47:55;48.10;;;18.63;;
6999;SDS011;3540;53.242;10.408;2024-01-11T09:50:21;48.87;;;18.83;;
6999;SDS011;3540;53.242;10.408;2024-01-11T09:52:49;43.17;;;19.20;;
6999;SDS011;3540;53.242;10.408;2024-01-11T09:55:18;50.50;;;19.60;;
6999;SDS011;3540;53.242;10.408;2024-01-11T09:57:44;46.67;;;19.40;;
6999;SDS011;3540;53.242;10.408;2024-01-11T10:00:18;50.13;;;19.37;;
6999;SDS011;3540;53.242;10.408;2024-01-11T10:02:48;48.60;;;19.20;;
6999;SDS011;3540;53.242;10.408;2024-01-11T10:05:15;49.53;;;19.03;;
6999;SDS011;3540;53.242;10.408;2024-01-11T10:07:42;49.57;;;19.73;;
6999;SDS011;3540;53.242;10.408;2024-01-11T10:10:08;48.20;;;19.70;;
6999;SDS011;3540;53.242;10.408;2024-01-11T10:12:35;47.70;;;20.20;;
6999;SDS011;3540;53.242;10.408;2024-01-11T10:15:10;48.37;;;19.57;;
6999;SDS011;3540;53.242;10.408;2024-01-11T10:17:36;50.07;;;20.40;;
6999;SDS011;3540;53.242;10.408;2024-01-11T10:20:14;54.23;;;21.47;;
6999;SDS011;3540;53.242;10.408;2024-01-11T10:22:40;53.77;;;22.80;;
6999;SDS011;3540;53.242;10.408;2024-01-11T10:25:13;48.60;;;19.33;;
6999;SDS011;3540;53.242;10.408;2024-01-11T10:27:40;41.17;;;18.87;;
6999;SDS011;3540;53.242;10.408;2024-01-11T10:30:07;44.47;;;19.50;;
6999;SDS011;3540;53.242;10.408;2024-01-11T10:32:33;44.87;;;19.43;;
6999;SDS011;3540;53.242;10.408;2024-01-11T10:35:03;41.80;;;18.07;;
6999;SDS011;3540;53.242;10.408;2024-01-11T10:37:30;44.00;;;19.07;;
6999;SDS011;3540;53.242;10.408;2024-01-11T10:39:58;44.53;;;19.13;;
6999;SDS011;3540;53.242;10.408;2024-01-11T10:42:27;43.83;;;18.73;;
6999;SDS011;3540;53.242;10.408;2024-01-11T10:44:56;43.03;;;19.47;;
6999;SDS011;3540;53.242;10.408;2024-01-11T10:47:27;45.83;;;18.60;;
6999;SDS011;3540;53.242;10.408;2024-01-11T10:49:56;42.40;;;18.47;;
6999;SDS011;3540;53.242;10.408;2024-01-11T10:52:43;43.90;;;19.73;;
6999;SDS011;3540;53.242;10.408;2024-01-11T10:55:28;43.80;;;19.80;;
6999;SDS011;3540;53.242;10.408;2024-01-11T10:57:56;46.07;;;20.43;;
6999;SDS011;3540;53.242;10.408;2024-01-11T11:00:24;44.70;;;18.80;;
6999;SDS011;3540;53.242;10.408;2024-01-11T11:02:52;43.07;;;19.83;;
6999;SDS011;3540;53.242;10.408;2024-01-11T11:05:19;47.20;;;18.90;;
6999;SDS011;3540;53.242;10.408;2024-01-11T11:07:47;46.13;;;19.53;;
6999;SDS011;3540;53.242;10.408;2024-01-11T11:10:14;46.03;;;20.53;;
6999;SDS011;3540;53.242;10.408;2024-01-11T11:12:43;41.73;;;19.97;;
6999;SDS011;3540;53.242;10.408;2024-01-11T11:15:12;47.80;;;20.30;;
6999;SDS011;3540;53.242;10.408;2024-01-11T11:17:38;50.30;;;21.17;;
6999;SDS011;3540;53.242;10.408;2024-01-11T11:20:06;44.40;;;20.60;;
6999;SDS011;3540;53.242;10.408;2024-01-11T11:22:36;46.93;;;21.10;;
6999;SDS011;3540;53.242;10.408;2024-01-11T11:25:44;51.63;;;22.63;;
6999;SDS011;3540;53.242;10.408;2024-01-11T11:27:50;52.03;;;20.90;;
6999;SDS011;3540;53.242;10.408;2024-01-11T11:30:18;52.80;;;22.57;;
6999;SDS011;3540;53.242;10.408;2024-01-11T11:32:45;54.10;;;21.70;;
6999;SDS011;3540;53.242;10.408;2024-01-11T11:35:11;52.20;;;21.73;;
6999;SDS011;3540;53.242;10.408;2024-01-11T11:37:37;52.53;;;22.27;;
6999;SDS011;3540;53.242;10.408;2024-01-11T11:40:07;50.83;;;21.60;;
6999;SDS011;3540;53.242;10.408;2024-01-11T11:42:36;54.93;;;21.17;;
6999;SDS011;3540;53.242;10.408;2024-01-11T11:45:02;52.63;;;22.20;;
6999;SDS011;3540;53.242;10.408;2024-01-11T11:47:33;52.97;;;21.23;;
6999;SDS011;3540;53.242;10.408;2024-01-11T11:50:04;59.10;;;21.17;;
6999;SDS011;3540;53.242;10.408;2024-01-11T11:52:34;47.80;;;19.83;;
6999;SDS011;3540;53.242;10.408;2024-01-11T11:55:05;46.57;;;20.77;;
6999;SDS011;3540;53.242;10.408;2024-01-11T11:57:33;48.33;;;19.60;;
6999;SDS011;3540;53.242;10.408;2024-01-11T11:59:59;44.13;;;18.67;;
6999;SDS011;3540;53.242;10.408;2024-01-11T12:02:27;45.53;;;19.43;;
6999;SDS011;3540;53.242;10.408;2024-01-11T12:04:53;53.43;;;20.30;;
6999;SDS011;3540;53.242;10.408;2024-01-11T12:07:19;42.97;;;18.87;;
6999;SDS011;3540;53.242;10.408;2024-01-11T12:09:46;47.47;;;18.03;;
6999;SDS011;3540;53.242;10.408;2024-01-11T12:12:12;48.37;;;18.63;;
6999;SDS011;3540;53.242;10.408;2024-01-11T12:14:38;41.70;;;18.30;;
6999;SDS011;3540;53.242;10.408;2024-01-11T12:17:04;43.30;;;18.20;;
6999;SDS011;3540;53.242;10.408;2024-01-11T12:19:31;44.13;;;18.80;;
6999;SDS011;3540;53.242;10.408;2024-01-11T12:21:57;47.03;;;18.70;;
6999;SDS011;3540;53.242;10.408;2024-01-11T12:24:23;36.70;;;17.17;;
6999;SDS011;3540;53.242;10.408;2024-01-11T12:26:49;42.10;;;16.80;;
6999;SDS011;3540;53.242;10.408;2024-01-11T12:29:22;45.03;;;16.87;;
6999;SDS011;3540;53.242;10.408;2024-01-11T12:31:48;40.73;;;17.07;;
6999;SDS011;3540;53.242;10.408;2024-01-11T12:34:15;44.43;;;17.30;;
6999;SDS011;3540;53.242;10.408;2024-01-11T12:36:41;44.77;;;17.33;;
6999;SDS011;3540;53.242;10.408;2024-01-11T12:39:07;41.40;;;16.90;;
6999;SDS011;3540;53.242;10.408;2024-01-11T12:41:34;39.37;;;17.07;;
6999;SDS011;3540;53.242;10.408;2024-01-11T12:44:00;37.57;;;17.57;;
6999;SDS011;3540;53.242;10.408;2024-01-11T12:46:26;39.47;;;16.60;;
6999;SDS011;3540;53.242;10.408;2024-01-11T12:48:53;41.47;;;16.60;;
6999;SDS011;3540;53.242;10.408;2024-01-11T12:51:19;42.43;;;17.30;;
6999;SDS011;3540;53.242;10.408;2024-01-11T12:53:46;37.07;;;16.57;;
6999;SDS011;3540;53.242;10.408;2024-01-11T12:56:13;41.13;;;16.77;;
6999;SDS011;3540;53.242;10.408;2024-01-11T12:58:40;34.47;;;16.37;;
6999;SDS011;3540;53.242;10.408;2024-01-11T13:01:06;35.57;;;16.47;;
6999;SDS011;3540;53.242;10.408;2024-01-11T13:03:33;41.23;;;17.17;;
6999;SDS011;3540;53.242;10.408;2024-01-11T13:06:03;40.60;;;16.40;;
6999;SDS011;3540;53.242;10.408;2024-01-11T13:08:30;39.80;;;16.43;;
6999;SDS011;3540;53.242;10.408;2024-01-11T13:10:56;37.67;;;16.90;;
6999;SDS011;3540;53.242;10.408;2024-01-11T13:13:22;38.03;;;16.90;;
6999;SDS011;3540;53.242;10.408;2024-01-11T13:15:48;38.87;;;17.40;;
6999;SDS011;3540;53.242;10.408;2024-01-11T13:18:16;39.40;;;17.70;;
6999;SDS011;3540;53.242;10.408;2024-01-11T13:20:42;42.13;;;17.77;;
6999;SDS011;3540;53.242;10.408;2024-01-11T13:23:12;37.77;;;18.03;;
6999;SDS011;3540;53.242;10.408;2024-01-11T13:25:42;45.37;;;18.77;;
6999;SDS011;3540;53.242;10.408;2024-01-11T13:28:09;47.20;;;19.80;;
6999;SDS011;3540;53.242;10.408;2024-01-11T13:30:37;40.70;;;18.37;;
6999;SDS011;3540;53.242;10.408;2024-01-11T13:33:04;45.30;;;19.10;;
6999;SDS011;3540;53.242;10.408;2024-01-11T13:35:30;43.17;;;19.17;;
6999;SDS011;3540;53.242;10.408;2024-01-11T13:37:55;47.83;;;20.60;;
6999;SDS011;3540;53.242;10.408;2024-01-11T13:40:21;45.63;;;19.47;;
6999;SDS011;3540;53.242;10.408;2024-01-11T13:42:46;48.40;;;19.90;;
6999;SDS011;3540;53.242;10.408;2024-01-11T13:45:12;43.87;;;19.20;;
6999;SDS011;3540;53.242;10.408;2024-01-11T13:47:38;45.10;;;19.37;;
6999;SDS011;3540;53.242;10.408;2024-01-11T13:50:04;46.90;;;19.13;;
6999;SDS011;3540;53.242;10.408;2024-01-11T13:52:30;47.53;;;20.47;;
6999;SDS011;3540;53.242;10.408;2024-01-11T13:54:55;45.70;;;19.50;;
6999;SDS011;3540;53.242;10.408;2024-01-11T13:57:21;47.77;;;19.53;;
6999;SDS011;3540;53.242;10.408;2024-01-11T13:59:47;47.73;;;20.17;;
6999;SDS011;3540;53.242;10.408;2024-01-11T14:02:12;45.70;;;19.77;;
6999;SDS011;3540;53.242;10.408;2024-01-11T14:04:38;46.57;;;20.83;;
6999;SDS011;3540;53.242;10.408;2024-01-11T14:07:04;46.10;;;18.80;;
6999;SDS011;3540;53.242;10.408;2024-01-11T14:09:30;53.70;;;20.57;;
6999;SDS011;3540;53.242;10.408;2024-01-11T14:11:56;47.07;;;19.90;;
6999;SDS011;3540;53.242;10.408;2024-01-11T14:14:21;49.03;;;21.30;;
6999;SDS011;3540;53.242;10.408;2024-01-11T14:16:47;48.93;;;20.53;;
6999;SDS011;3540;53.242;10.408;2024-01-11T14:19:13;47.80;;;20.63;;
6999;SDS011;3540;53.242;10.408;2024-01-11T14:21:39;53.60;;;20.67;;
6999;SDS011;3540;53.242;10.408;2024-01-11T14:24:04;53.20;;;20.20;;
6999;SDS011;3540;53.242;10.408;2024-01-11T14:26:31;45.90;;;19.70;;
6999;SDS011;3540;53.242;10.408;2024-01-11T14:28:58;45.30;;;19.77;;
6999;SDS011;3540;53.242;10.408;2024-01-11T14:31:23;50.17;;;21.00;;